North Salt Lake, Utah
Current Conditions -  °F | °C
As of 2:53 PM on Sunday 25 Jan 2015 (Local Time) from KSLC Reporting Station
Scattered Clouds Scattered Clouds  
Wind Chill: 51°   Ceiling: Unl
Heat Index: 51°   Visibility: 10mi
Dew Point: 34°   Wind: 6mph
Humidity: 52%   Direction: NA
Pressure: 30.42"   Gusts: NA
Location:  40.84°N, 111.91°W
Report Text: KSLC 252153Z VRB05KT 10SM SCT200 11/01 A3042 RMK AO2 SLP296 T01060011
Loading
Personal Weather Stations






























Interactive Weather Map New forecast layout! Learn more

10-Day Weather Forecast

Advertisements
Track Severe Weather on mobile